Time;durP1;ratioP1;P1;durP2;ratioP2;P2;SDS_P1;SDS_P2;PMS_P1;PMS_P2;Temp;Humidity;BMP_temperature;BMP_pressure;BME280_temperature;BME280_humidity;BME280_pressure;Samples;Min_cycle;Max_cycle;Signal;HPM_P1;HPM_P2
2021/12/09 00:01:04;;;;;;;39.28;27.05;;;2.70;99.90;;;;;;5114149;28;20086;-55
2021/12/09 00:03:36;;;;;;;42.35;25.30;;;2.90;99.90;;;;;;5111760;28;20036;-53
2021/12/09 00:06:04;;;;;;;40.65;26.52;;;2.60;99.90;;;;;;5113654;28;20036;-50
2021/12/09 00:08:30;;;;;;;43.40;28.58;;;2.50;99.90;;;;;;5113914;28;20023;-49
2021/12/09 00:10:58;;;;;;;36.25;24.48;;;2.60;99.90;;;;;;5111583;28;20403;-52
2021/12/09 00:13:27;;;;;;;38.50;24.10;;;2.60;99.90;;;;;;5146821;27;20024;-56
2021/12/09 00:15:53;;;;;;;40.58;24.67;;;2.40;99.90;;;;;;5118205;27;20068;-50
2021/12/09 00:18:19;;;;;;;50.17;31.23;;;2.40;99.90;;;;;;5113595;28;20031;-53
2021/12/09 00:20:46;;;;;;;57.72;33.55;;;2.40;99.90;;;;;;5113314;28;20024;-53
2021/12/09 00:23:12;;;;;;;52.95;32.53;;;2.60;99.90;;;;;;5113249;28;20031;-50
2021/12/09 00:25:38;;;;;;;44.95;26.25;;;2.50;99.90;;;;;;5111361;28;20227;-54
2021/12/09 00:28:05;;;;;;;48.03;31.13;;;2.20;99.90;;;;;;5128171;27;20118;-52
2021/12/09 00:30:32;;;;;;;39.40;24.50;;;2.20;99.90;;;;;;5112947;28;20180;-51
2021/12/09 00:33:02;;;;;;;47.78;29.45;;;2.10;99.90;;;;;;5113585;28;20036;-50
2021/12/09 00:35:33;;;;;;;45.03;28.98;;;2.50;99.90;;;;;;5113389;28;20027;-53
2021/12/09 00:38:06;;;;;;;52.97;31.17;;;2.90;99.90;;;;;;5127491;27;20487;-52
2021/12/09 00:40:33;;;;;;;55.47;34.03;;;3.10;99.90;;;;;;5113166;28;20090;-51
2021/12/09 00:42:59;;;;;;;52.58;35.20;;;3.20;99.90;;;;;;5111151;28;20371;-51
2021/12/09 00:45:25;;;;;;;48.08;32.08;;;3.20;99.90;;;;;;5113273;28;20490;-56
2021/12/09 00:47:51;;;;;;;52.92;29.08;;;3.40;99.90;;;;;;5128072;27;20035;-48
2021/12/09 00:50:18;;;;;;;43.95;27.70;;;3.30;99.90;;;;;;5127947;27;20114;-53
2021/12/09 00:52:46;;;;;;;43.33;28.73;;;3.40;99.90;;;;;;5111045;28;20128;-49
2021/12/09 00:55:12;;;;;;;47.20;29.45;;;3.60;99.90;;;;;;5113294;28;20207;-53
2021/12/09 00:57:39;;;;;;;41.97;28.48;;;3.60;99.90;;;;;;5113071;28;20031;-51
2021/12/09 01:00:18;;;;;;;41.97;27.17;;;3.40;99.90;;;;;;5077392;28;20465;-54
2021/12/09 01:02:44;;;;;;;40.78;25.50;;;3.20;99.90;;;;;;5113027;28;20030;-53
2021/12/09 01:05:11;;;;;;;37.78;23.42;;;3.20;99.90;;;;;;5115368;28;20107;-52
2021/12/09 01:07:39;;;;;;;42.55;28.00;;;3.00;99.90;;;;;;5116696;28;20042;-61
2021/12/09 01:10:07;;;;;;;45.65;28.25;;;3.10;99.90;;;;;;5112128;28;20123;-53
2021/12/09 01:12:33;;;;;;;31.80;20.73;;;3.20;99.90;;;;;;5069895;28;20044;-54
2021/12/09 01:14:59;;;;;;;40.30;26.25;;;2.90;99.90;;;;;;5069926;28;20553;-51
2021/12/09 01:17:26;;;;;;;44.00;28.42;;;3.00;99.90;;;;;;5069554;28;20049;-53
2021/12/09 01:19:53;;;;;;;40.42;25.38;;;3.10;99.90;;;;;;5069943;28;20480;-55
2021/12/09 01:22:19;;;;;;;40.95;26.23;;;3.20;99.90;;;;;;5069671;28;20039;-50
2021/12/09 01:24:46;;;;;;;40.45;25.48;;;3.30;99.90;;;;;;5069885;28;20414;-53
2021/12/09 01:27:12;;;;;;;41.25;26.65;;;3.40;99.90;;;;;;5069872;28;20045;-53
2021/12/09 01:29:41;;;;;;;36.17;24.30;;;3.40;99.90;;;;;;5069680;28;20028;-50
2021/12/09 01:32:10;;;;;;;39.78;25.15;;;3.20;99.90;;;;;;5069745;28;20044;-51
2021/12/09 01:34:37;;;;;;;34.28;22.15;;;3.30;99.90;;;;;;5069791;28;20029;-48
2021/12/09 01:37:04;;;;;;;38.97;24.50;;;3.40;99.90;;;;;;5069746;28;20527;-51
2021/12/09 01:39:31;;;;;;;37.90;24.63;;;3.40;99.90;;;;;;5069398;28;20090;-51
2021/12/09 01:41:58;;;;;;;35.78;22.13;;;3.30;99.90;;;;;;5069370;28;20040;-50
2021/12/09 01:44:26;;;;;;;35.22;23.40;;;3.40;99.90;;;;;;5091016;28;20039;-53
2021/12/09 01:46:52;;;;;;;38.83;25.02;;;3.50;99.90;;;;;;5116455;28;20032;-51
2021/12/09 01:49:18;;;;;;;37.05;25.20;;;3.70;99.90;;;;;;5116534;28;20031;-49
2021/12/09 01:51:46;;;;;;;42.15;27.85;;;4.00;99.90;;;;;;5116292;27;20081;-51
2021/12/09 01:54:14;;;;;;;49.70;30.83;;;4.20;99.90;;;;;;5116377;28;20199;-55
2021/12/09 01:56:39;;;;;;;39.45;25.20;;;4.00;99.90;;;;;;5116205;28;20522;-54
2021/12/09 01:59:06;;;;;;;39.10;26.10;;;4.10;99.90;;;;;;5116742;28;20023;-56
2021/12/09 02:01:34;;;;;;;40.90;25.83;;;4.00;99.90;;;;;;5080618;28;20032;-53
2021/12/09 02:04:02;;;;;;;40.08;23.65;;;3.80;99.90;;;;;;5116216;27;20474;-55
2021/12/09 02:06:29;;;;;;;35.60;22.92;;;3.70;99.90;;;;;;5116205;28;20035;-51
2021/12/09 02:08:55;;;;;;;37.83;24.77;;;3.20;99.90;;;;;;5115933;28;20069;-53
2021/12/09 02:11:21;;;;;;;38.80;26.00;;;3.20;99.90;;;;;;5116118;28;20071;-52
2021/12/09 02:13:55;;;;;;;36.25;23.92;;;3.40;99.90;;;;;;5116314;28;20482;-51
2021/12/09 02:16:21;;;;;;;40.95;26.38;;;3.40;99.90;;;;;;5115854;28;20056;-55
2021/12/09 02:18:48;;;;;;;37.72;25.80;;;3.60;99.90;;;;;;5115660;28;20028;-55
2021/12/09 02:21:18;;;;;;;39.88;25.08;;;3.70;99.90;;;;;;5115952;28;20111;-53
2021/12/09 02:23:50;;;;;;;37.60;26.08;;;3.60;99.90;;;;;;5116057;28;20054;-47
2021/12/09 02:26:18;;;;;;;42.85;27.52;;;3.60;99.90;;;;;;5115715;28;20028;-51
2021/12/09 02:28:45;;;;;;;39.55;26.10;;;3.80;99.90;;;;;;5115633;28;20555;-50
2021/12/09 02:31:12;;;;;;;40.55;25.40;;;3.90;99.90;;;;;;5115927;28;20036;-51
2021/12/09 02:33:38;;;;;;;38.28;25.90;;;4.10;99.90;;;;;;5113529;28;20047;-53
2021/12/09 02:36:05;;;;;;;35.22;24.40;;;4.10;99.90;;;;;;5114442;28;20599;-54
2021/12/09 02:38:30;;;;;;;33.08;22.83;;;3.90;99.90;;;;;;5115855;28;20034;-46
2021/12/09 02:40:56;;;;;;;38.05;24.65;;;3.70;99.90;;;;;;5096391;28;20383;-50
2021/12/09 02:43:28;;;;;;;38.28;22.83;;;3.70;99.90;;;;;;5115566;28;20031;-53
2021/12/09 02:45:55;;;;;;;36.05;23.13;;;3.80;99.90;;;;;;5115438;28;20028;-52
2021/12/09 02:48:23;;;;;;;30.92;21.30;;;3.80;99.90;;;;;;5115766;28;20040;-50
2021/12/09 02:50:50;;;;;;;35.25;23.25;;;3.80;99.90;;;;;;5113217;28;20463;-48
2021/12/09 02:53:17;;;;;;;32.65;21.25;;;3.90;99.90;;;;;;5114671;27;20463;-53
2021/12/09 02:55:44;;;;;;;30.10;21.08;;;3.60;99.90;;;;;;5095803;28;20046;-54
2021/12/09 02:58:10;;;;;;;32.25;21.40;;;3.60;99.90;;;;;;5114755;28;20063;-53
2021/12/09 03:01:02;;;;;;;35.90;22.20;;;3.70;99.90;;;;;;5115083;28;20035;-48
2021/12/09 03:03:28;;;;;;;36.72;22.88;;;3.60;99.90;;;;;;5072225;28;20040;-53
2021/12/09 03:05:56;;;;;;;31.85;21.88;;;3.60;99.90;;;;;;5072003;28;20033;-50
2021/12/09 03:08:33;;;;;;;33.95;21.63;;;3.70;99.90;;;;;;5021967;28;20474;-54
2021/12/09 03:11:07;;;;;;;30.95;21.35;;;3.70;99.90;;;;;;5071769;28;20040;-51
2021/12/09 03:13:33;;;;;;;27.05;17.10;;;3.70;99.90;;;;;;5038442;28;20056;-56
2021/12/09 03:15:59;;;;;;;36.63;23.23;;;3.70;99.90;;;;;;5071509;28;20789;-56
2021/12/09 03:18:26;;;;;;;31.35;21.02;;;3.60;99.90;;;;;;5038245;28;20157;-50
2021/12/09 03:20:51;;;;;;;32.65;18.77;;;3.70;99.90;;;;;;5071670;28;20516;-52
2021/12/09 03:23:17;;;;;;;30.35;19.70;;;3.70;99.90;;;;;;5071915;28;20714;-54
2021/12/09 03:25:43;;;;;;;33.05;20.67;;;3.70;99.90;;;;;;5038240;28;20036;-51
2021/12/09 03:28:09;;;;;;;34.33;21.65;;;3.70;99.90;;;;;;5054577;28;20040;-50
2021/12/09 03:30:35;;;;;;;33.65;22.52;;;3.80;99.90;;;;;;5071431;28;20035;-51
2021/12/09 03:33:01;;;;;;;33.00;21.52;;;3.90;99.90;;;;;;5071480;28;20036;-51
2021/12/09 03:35:27;;;;;;;35.10;22.80;;;3.70;99.90;;;;;;5021513;28;20206;-54
2021/12/09 03:37:52;;;;;;;32.28;21.88;;;4.10;99.90;;;;;;5071486;28;20119;-51
2021/12/09 03:40:18;;;;;;;34.58;20.23;;;4.40;99.90;;;;;;5033899;28;20031;-51
2021/12/09 03:42:44;;;;;;;33.00;20.48;;;4.10;99.90;;;;;;5114253;28;20402;-52
2021/12/09 03:45:11;;;;;;;34.20;22.15;;;4.00;99.90;;;;;;5114301;28;20398;-53
2021/12/09 03:47:37;;;;;;;32.58;21.55;;;4.10;99.90;;;;;;5114506;28;20379;-53
2021/12/09 03:50:06;;;;;;;30.77;20.70;;;4.30;99.90;;;;;;5112102;28;20084;-51
2021/12/09 03:52:32;;;;;;;32.03;20.60;;;4.30;99.90;;;;;;5114020;28;20051;-57
2021/12/09 03:54:58;;;;;;;27.08;19.23;;;4.80;99.90;;;;;;5114446;28;20118;-52
2021/12/09 03:57:24;;;;;;;26.67;19.02;;;4.10;99.90;;;;;;5113786;28;20066;-54
2021/12/09 03:59:51;;;;;;;25.63;17.67;;;4.20;99.90;;;;;;5114311;28;20047;-54
2021/12/09 04:02:17;;;;;;;30.92;18.48;;;4.10;99.90;;;;;;5111940;28;20035;-53
2021/12/09 04:04:43;;;;;;;24.70;16.45;;;4.20;99.90;;;;;;5113942;28;20047;-48
2021/12/09 04:07:09;;;;;;;25.67;17.50;;;4.30;99.90;;;;;;5113340;28;20023;-57
2021/12/09 04:09:34;;;;;;;25.60;17.05;;;4.40;99.90;;;;;;5111925;28;20114;-55
2021/12/09 04:12:00;;;;;;;21.50;13.25;;;4.50;99.90;;;;;;5090350;28;20582;-49
2021/12/09 04:14:27;;;;;;;26.10;15.82;;;4.30;99.90;;;;;;5101239;28;20372;-53
2021/12/09 04:16:53;;;;;;;23.58;15.77;;;4.50;99.90;;;;;;5092911;28;20503;-51
2021/12/09 04:19:19;;;;;;;24.92;16.45;;;4.60;99.90;;;;;;5093645;28;20039;-53
2021/12/09 04:21:46;;;;;;;26.17;16.60;;;4.80;99.90;;;;;;5093237;28;20021;-51
2021/12/09 04:24:14;;;;;;;24.83;16.13;;;5.00;99.90;;;;;;5093523;28;20084;-54
2021/12/09 04:26:43;;;;;;;21.40;14.15;;;4.80;99.90;;;;;;5093709;28;20122;-51
2021/12/09 04:29:10;;;;;;;22.27;15.05;;;5.00;99.90;;;;;;5093117;28;20082;-54
2021/12/09 04:31:36;;;;;;;20.50;14.93;;;5.10;99.90;;;;;;5107955;28;20127;-54
2021/12/09 04:34:03;;;;;;;20.77;13.82;;;5.00;99.90;;;;;;5097752;28;20020;-51
2021/12/09 04:36:29;;;;;;;20.02;14.23;;;4.80;99.90;;;;;;5113556;28;20034;-52
2021/12/09 04:38:55;;;;;;;21.02;13.65;;;4.80;99.90;;;;;;5113459;28;20023;-50
2021/12/09 04:41:21;;;;;;;18.15;12.32;;;4.80;99.90;;;;;;5094205;28;20045;-53
2021/12/09 04:43:47;;;;;;;22.38;13.70;;;4.70;99.90;;;;;;5113201;28;20051;-55
2021/12/09 04:46:14;;;;;;;21.35;14.80;;;4.80;99.90;;;;;;5108848;28;20074;-54
2021/12/09 04:48:39;;;;;;;26.48;21.40;;;4.80;99.90;;;;;;5093031;28;20078;-51
2021/12/09 04:51:06;;;;;;;23.80;17.98;;;4.80;99.90;;;;;;5098520;28;20505;-50
2021/12/09 04:53:33;;;;;;;28.02;22.23;;;4.90;99.90;;;;;;5113302;28;20716;-50
2021/12/09 04:55:59;;;;;;;25.52;15.70;;;4.80;99.90;;;;;;5113177;28;20035;-49
2021/12/09 04:58:26;;;;;;;24.80;15.02;;;4.90;99.90;;;;;;5113380;28;20364;-51
2021/12/09 05:00:55;;;;;;;19.35;13.63;;;4.60;99.90;;;;;;5113324;28;20050;-52
2021/12/09 05:03:21;;;;;;;18.25;13.07;;;4.80;99.90;;;;;;5113142;28;20023;-55
2021/12/09 05:05:50;;;;;;;20.20;13.23;;;4.60;99.90;;;;;;5113496;28;20030;-54
2021/12/09 05:08:19;;;;;;;20.13;13.82;;;4.40;99.90;;;;;;5109913;28;20015;-51
2021/12/09 05:11:05;;;;;;;18.52;14.18;;;4.70;99.90;;;;;;5113338;28;20035;-56
2021/12/09 05:13:34;;;;;;;24.00;15.35;;;4.60;99.90;;;;;;5077113;28;20040;-54
2021/12/09 05:16:01;;;;;;;22.70;15.88;;;4.70;99.90;;;;;;5112492;28;20097;-52
2021/12/09 05:18:31;;;;;;;23.77;15.38;;;4.70;99.90;;;;;;5109619;27;20042;-52
2021/12/09 05:20:57;;;;;;;18.30;12.02;;;4.70;99.90;;;;;;5110073;28;20031;-54
2021/12/09 05:23:24;;;;;;;18.23;12.07;;;4.80;99.90;;;;;;5097007;28;20032;-49
2021/12/09 05:25:50;;;;;;;19.42;12.45;;;4.80;99.90;;;;;;5094713;28;20391;-53
2021/12/09 05:28:17;;;;;;;14.90;11.10;;;4.80;99.90;;;;;;5097364;28;20024;-55
2021/12/09 05:33:33;;;;;;;16.33;11.80;;;4.90;99.90;;;;;;5117098;28;20447;-54
2021/12/09 05:35:59;;;;;;;16.83;9.80;;;4.90;99.90;;;;;;5114803;28;20453;-47
2021/12/09 05:38:25;;;;;;;16.50;12.52;;;4.80;99.90;;;;;;5114790;28;20108;-53
2021/12/09 05:40:52;;;;;;;14.68;9.82;;;4.90;99.90;;;;;;5078122;28;20160;-51
2021/12/09 05:43:18;;;;;;;16.73;10.65;;;4.90;99.90;;;;;;5116788;28;20076;-53
2021/12/09 05:45:46;;;;;;;15.45;11.23;;;5.00;99.90;;;;;;5114625;28;20032;-52
2021/12/09 05:48:12;;;;;;;14.88;10.32;;;5.00;99.90;;;;;;5117130;28;20028;-51
2021/12/09 05:50:38;;;;;;;15.43;10.00;;;5.00;99.90;;;;;;5103523;27;20095;-54
2021/12/09 05:53:04;;;;;;;14.35;9.73;;;5.10;99.90;;;;;;5105599;28;20020;-50
2021/12/09 05:55:31;;;;;;;12.48;9.35;;;5.10;99.90;;;;;;5096190;28;20498;-54
2021/12/09 05:57:56;;;;;;;11.75;8.50;;;5.20;99.90;;;;;;5096191;28;20037;-52
2021/12/09 06:00:22;;;;;;;12.35;9.35;;;5.20;99.90;;;;;;5109319;28;20027;-49
2021/12/09 06:02:48;;;;;;;18.15;10.02;;;5.30;99.90;;;;;;5116978;28;20516;-50
2021/12/09 06:05:14;;;;;;;18.80;12.38;;;5.30;99.90;;;;;;5111095;27;20034;-53
2021/12/09 06:07:40;;;;;;;17.48;10.98;;;5.50;99.90;;;;;;5114254;28;20526;-56
2021/12/09 06:10:07;;;;;;;17.13;11.30;;;5.50;99.90;;;;;;5115063;28;20016;-56
2021/12/09 06:12:34;;;;;;;16.45;10.88;;;5.60;99.90;;;;;;5039473;28;20084;-52
2021/12/09 06:15:00;;;;;;;22.17;11.65;;;5.60;99.90;;;;;;5113450;28;20540;-53
2021/12/09 06:17:26;;;;;;;16.67;10.73;;;5.70;99.90;;;;;;5114517;28;20067;-53
2021/12/09 06:19:51;;;;;;;18.40;11.60;;;5.70;99.90;;;;;;5094774;28;20115;-56
2021/12/09 06:22:18;;;;;;;17.80;10.52;;;5.60;99.90;;;;;;5113664;28;20032;-51
2021/12/09 06:24:45;;;;;;;13.90;8.90;;;5.60;99.90;;;;;;5108917;28;20036;-51
2021/12/09 06:27:12;;;;;;;16.67;11.10;;;5.70;99.90;;;;;;5111641;28;20111;-53
2021/12/09 06:29:38;;;;;;;13.20;9.98;;;5.90;99.90;;;;;;5109779;27;20035;-52
2021/12/09 06:32:05;;;;;;;14.13;10.52;;;6.00;99.90;;;;;;5105516;28;20039;-49
2021/12/09 06:34:31;;;;;;;16.40;11.27;;;6.10;99.90;;;;;;5101886;28;20043;-48
2021/12/09 06:36:57;;;;;;;17.77;14.05;;;6.20;99.90;;;;;;5112694;27;20514;-50
2021/12/09 06:39:22;;;;;;;15.93;11.25;;;6.30;99.90;;;;;;5112775;27;20067;-51
2021/12/09 06:41:48;;;;;;;13.30;9.00;;;6.30;99.90;;;;;;5100526;28;20035;-52
2021/12/09 06:44:14;;;;;;;12.93;8.48;;;6.30;99.90;;;;;;5061944;28;20080;-50
2021/12/09 06:46:40;;;;;;;11.07;7.93;;;6.50;99.90;;;;;;5061956;28;20084;-49
2021/12/09 06:49:06;;;;;;;34.58;24.13;;;6.40;99.90;;;;;;5115549;28;20030;-50
2021/12/09 06:51:32;;;;;;;9.88;7.30;;;6.50;99.90;;;;;;5111133;28;20138;-51
2021/12/09 06:53:58;;;;;;;10.27;7.25;;;6.40;99.90;;;;;;5114412;28;20402;-51
2021/12/09 06:56:27;;;;;;;12.98;10.07;;;6.30;99.90;;;;;;5112503;28;20043;-51
2021/12/09 06:58:54;;;;;;;13.48;8.80;;;6.30;99.90;;;;;;5095193;28;20096;-51
2021/12/09 07:01:20;;;;;;;11.90;7.72;;;6.90;99.90;;;;;;5111991;28;20028;-50
2021/12/09 07:03:46;;;;;;;11.48;6.25;;;6.10;99.90;;;;;;5114396;28;20024;-51
2021/12/09 07:06:12;;;;;;;11.65;6.40;;;6.00;99.90;;;;;;5078069;28;20043;-49
2021/12/09 07:08:45;;;;;;;6.03;4.43;;;6.10;99.90;;;;;;5109037;28;20046;-49
2021/12/09 07:11:12;;;;;;;5.68;3.83;;;6.00;99.90;;;;;;5112715;28;20031;-50
2021/12/09 07:13:38;;;;;;;10.68;6.63;;;6.00;99.90;;;;;;5114353;28;20035;-48
2021/12/09 07:16:05;;;;;;;8.88;5.20;;;6.20;99.90;;;;;;5114277;28;20043;-51
2021/12/09 07:18:31;;;;;;;8.55;5.68;;;6.20;99.90;;;;;;5111650;28;20028;-50
2021/12/09 07:20:57;;;;;;;9.18;5.13;;;6.20;99.90;;;;;;5094772;28;20039;-51
2021/12/09 07:23:23;;;;;;;7.97;5.05;;;6.20;99.90;;;;;;5112491;28;20633;-50
2021/12/09 07:25:49;;;;;;;9.55;3.75;;;6.30;99.90;;;;;;5112531;28;20115;-51
2021/12/09 07:28:15;;;;;;;8.77;5.70;;;6.40;99.90;;;;;;5112389;28;20036;-51
2021/12/09 07:30:41;;;;;;;9.07;5.35;;;6.40;99.90;;;;;;5078228;28;20043;-50
2021/12/09 07:33:07;;;;;;;9.30;5.93;;;6.40;99.90;;;;;;5112161;28;20031;-49
2021/12/09 07:35:34;;;;;;;8.25;5.13;;;6.40;99.90;;;;;;5112136;28;20047;-51
2021/12/09 07:38:02;;;;;;;7.90;4.35;;;6.30;99.90;;;;;;5112285;28;20112;-49
2021/12/09 07:40:28;;;;;;;11.40;6.28;;;6.30;99.90;;;;;;5111095;28;20575;-50
2021/12/09 07:42:54;;;;;;;7.85;5.53;;;6.30;99.90;;;;;;5109094;28;20149;-49
2021/12/09 07:45:21;;;;;;;11.02;5.03;;;6.30;99.90;;;;;;5111817;28;20049;-51
2021/12/09 07:47:47;;;;;;;9.95;5.25;;;6.30;99.90;;;;;;5108792;28;20040;-51
2021/12/09 07:50:16;;;;;;;7.03;4.80;;;6.20;99.90;;;;;;5112769;28;20498;-51
2021/12/09 07:52:44;;;;;;;9.73;5.93;;;6.20;99.90;;;;;;5113911;28;20408;-51
2021/12/09 07:55:11;;;;;;;9.55;5.90;;;6.30;99.90;;;;;;5076720;28;20122;-49
2021/12/09 07:57:38;;;;;;;11.05;7.32;;;6.30;99.90;;;;;;5111644;28;20041;-49
2021/12/09 08:00:12;;;;;;;12.10;6.95;;;6.30;99.90;;;;;;5111641;28;20406;-50
2021/12/09 08:02:39;;;;;;;10.60;6.20;;;6.30;99.90;;;;;;5111349;28;20046;-51
2021/12/09 08:05:05;;;;;;;7.78;5.22;;;6.40;99.90;;;;;;5111611;28;20166;-51
2021/12/09 08:07:30;;;;;;;13.77;7.55;;;6.40;99.90;;;;;;5110708;28;20070;-50
2021/12/09 08:09:56;;;;;;;12.35;8.65;;;6.40;99.90;;;;;;5101512;28;20450;-49
2021/12/09 08:12:22;;;;;;;7.97;4.93;;;6.40;99.90;;;;;;5084252;28;20133;-49
2021/12/09 08:14:48;;;;;;;11.05;5.40;;;6.30;99.90;;;;;;5110443;28;20039;-49
2021/12/09 08:20:00;;;;;;;9.77;5.00;;;6.30;99.90;;;;;;5098822;28;20074;-50
2021/12/09 08:22:26;;;;;;;11.90;5.72;;;6.30;99.90;;;;;;5110843;28;20023;-49
2021/12/09 08:24:55;;;;;;;11.57;7.95;;;6.30;99.90;;;;;;5105200;28;20076;-49
2021/12/09 08:27:21;;;;;;;12.40;8.13;;;6.40;99.90;;;;;;5060707;28;20043;-49
2021/12/09 08:29:47;;;;;;;9.82;5.63;;;6.40;99.90;;;;;;5113109;28;20062;-49
2021/12/09 08:32:13;;;;;;;9.13;5.07;;;6.50;99.90;;;;;;5112977;28;20063;-50
2021/12/09 08:34:39;;;;;;;11.38;6.00;;;6.50;99.90;;;;;;5109153;28;20015;-50
2021/12/09 08:37:05;;;;;;;14.68;8.30;;;6.50;99.90;;;;;;5110414;28;20031;-50
2021/12/09 08:39:31;;;;;;;9.30;4.80;;;6.60;99.90;;;;;;5110496;28;20023;-50
2021/12/09 08:41:57;;;;;;;9.38;6.03;;;6.60;99.90;;;;;;5113144;28;20020;-50
2021/12/09 08:44:23;;;;;;;8.02;5.47;;;6.80;99.90;;;;;;5113050;28;20023;-50
2021/12/09 08:46:49;;;;;;;11.25;6.95;;;7.10;99.90;;;;;;5112931;28;20015;-49
2021/12/09 08:49:15;;;;;;;14.07;6.70;;;7.30;99.90;;;;;;5112697;28;20046;-50
2021/12/09 08:51:41;;;;;;;13.77;8.57;;;7.60;99.90;;;;;;5112491;28;20446;-50
2021/12/09 08:54:07;;;;;;;9.50;6.80;;;7.50;99.90;;;;;;5093793;28;20044;-50
2021/12/09 08:56:34;;;;;;;11.05;6.45;;;7.30;99.90;;;;;;5106810;28;20028;-49
2021/12/09 08:59:03;;;;;;;8.73;6.25;;;7.40;99.90;;;;;;5112830;28;20023;-49
2021/12/09 09:01:29;;;;;;;10.90;4.78;;;7.40;99.90;;;;;;5110346;28;20395;-50
2021/12/09 09:03:54;;;;;;;13.45;8.00;;;7.30;99.90;;;;;;5093709;28;20043;-49
2021/12/09 09:06:20;;;;;;;11.27;6.90;;;7.40;99.90;;;;;;5112597;28;20111;-49
2021/12/09 09:08:50;;;;;;;16.45;9.70;;;7.30;99.90;;;;;;5112706;28;20111;-49
2021/12/09 09:11:16;;;;;;;11.27;7.10;;;7.30;99.90;;;;;;5113399;28;20048;-50
2021/12/09 09:13:42;;;;;;;12.50;7.80;;;7.30;99.90;;;;;;5112907;28;20050;-49
2021/12/09 09:16:08;;;;;;;404.35;363.27;;;7.40;99.90;;;;;;5113225;28;20055;-49
2021/12/09 09:18:34;;;;;;;27.45;19.15;;;7.70;99.90;;;;;;5111256;28;20027;-51
2021/12/09 09:21:00;;;;;;;22.23;17.88;;;7.50;99.90;;;;;;5072168;28;20040;-49
2021/12/09 09:23:26;;;;;;;9.10;6.43;;;7.50;99.90;;;;;;5108789;28;20479;-50
2021/12/09 09:25:52;;;;;;;12.15;10.30;;;7.80;99.90;;;;;;5090623;28;20042;-49
2021/12/09 09:28:18;;;;;;;11.70;7.43;;;8.20;99.90;;;;;;5110217;28;20150;-49
2021/12/09 09:30:52;;;;;;;10.40;6.85;;;8.60;99.90;;;;;;5110120;28;20142;-49
2021/12/09 09:33:20;;;;;;;16.73;10.43;;;8.70;99.90;;;;;;5110752;28;20031;-49
2021/12/09 09:35:47;;;;;;;13.57;8.63;;;8.90;99.90;;;;;;5110408;28;20039;-49
2021/12/09 09:38:14;;;;;;;11.63;9.15;;;8.70;99.90;;;;;;5093582;28;20039;-49
2021/12/09 09:40:51;;;;;;;22.13;11.30;;;8.80;99.90;;;;;;5110317;28;20039;-49
2021/12/09 09:44:11;;;;;;;18.23;9.40;;;8.80;99.90;;;;;;5110571;28;20062;-49
2021/12/09 09:46:06;;;;;;;15.18;9.15;;;8.70;99.90;;;;;;5099647;28;20055;-49
2021/12/09 09:48:33;;;;;;;13.57;8.93;;;8.70;99.90;;;;;;5109762;28;20028;-50
2021/12/09 09:51:01;;;;;;;18.17;7.57;;;8.80;99.90;;;;;;5109352;28;20023;-49
2021/12/09 09:53:27;;;;;;;8.70;6.32;;;8.90;99.90;;;;;;5113157;28;20028;-47
2021/12/09 09:55:53;;;;;;;11.63;7.70;;;9.20;99.90;;;;;;5080630;28;20163;-58
2021/12/09 09:58:19;;;;;;;8.35;5.95;;;9.20;99.90;;;;;;5106772;28;20122;-54
2021/12/09 10:00:45;;;;;;;12.77;8.98;;;9.00;99.90;;;;;;5110850;28;20504;-55
2021/12/09 10:03:16;;;;;;;14.18;9.60;;;9.10;99.90;;;;;;5111514;28;20030;-54
2021/12/09 10:05:44;;;;;;;15.60;10.50;;;9.20;99.90;;;;;;5116134;28;20023;-53
2021/12/09 10:08:13;;;;;;;13.73;9.70;;;9.30;99.90;;;;;;5115366;28;20031;-57
2021/12/09 10:10:44;;;;;;;15.70;10.45;;;9.30;99.90;;;;;;5111146;28;20105;-57
2021/12/09 10:13:13;;;;;;;12.43;8.43;;;9.20;99.90;;;;;;5130836;27;20035;-57
2021/12/09 10:15:50;;;;;;;10.57;7.47;;;9.20;99.90;;;;;;5111723;28;20031;-52
2021/12/09 10:18:36;;;;;;;13.70;7.72;;;8.90;99.90;;;;;;5113651;28;20081;-55
2021/12/09 10:21:04;;;;;;;12.75;6.80;;;8.80;99.90;;;;;;5094773;28;20067;-56
2021/12/09 10:23:35;;;;;;;15.77;9.77;;;8.70;99.90;;;;;;5093302;28;20061;-56
2021/12/09 10:26:26;;;;;;;13.65;9.57;;;8.80;99.90;;;;;;5115384;28;20157;-58
2021/12/09 10:29:02;;;;;;;16.30;10.30;;;8.90;99.90;;;;;;5115603;28;20153;-56
2021/12/09 10:31:33;;;;;;;13.88;9.02;;;8.80;99.90;;;;;;5115597;27;20031;-53
2021/12/09 10:36:58;;;;;;;13.27;8.20;;;8.80;99.90;;;;;;5110507;28;20463;-53
2021/12/09 10:39:27;;;;;;;14.95;9.95;;;8.70;99.90;;;;;;5105697;28;20035;-53
2021/12/09 10:41:55;;;;;;;17.33;10.48;;;8.80;99.90;;;;;;5099526;28;20054;-51
2021/12/09 10:44:34;;;;;;;17.88;10.15;;;8.80;99.90;;;;;;5095182;28;20044;-53
2021/12/09 10:47:09;;;;;;;12.13;7.65;;;8.70;99.90;;;;;;5113191;28;20020;-53
2021/12/09 10:49:49;;;;;;;14.48;9.13;;;8.70;99.90;;;;;;5096588;28;20505;-51
2021/12/09 10:52:23;;;;;;;14.63;8.95;;;8.70;99.90;;;;;;5112115;28;20051;-54
2021/12/09 10:54:50;;;;;;;12.07;9.05;;;8.70;99.90;;;;;;5113086;28;20038;-51
2021/12/09 10:57:27;;;;;;;16.38;9.05;;;8.60;99.90;;;;;;5078747;28;20036;-52
2021/12/09 10:59:53;;;;;;;13.45;7.72;;;8.60;99.90;;;;;;5113257;28;20529;-52
2021/12/09 11:02:19;;;;;;;9.52;5.35;;;8.50;99.90;;;;;;5112717;28;20049;-52
2021/12/09 11:05:03;;;;;;;13.02;7.35;;;8.40;99.90;;;;;;5084460;28;20487;-53
2021/12/09 11:07:31;;;;;;;12.30;6.80;;;8.50;99.90;;;;;;5115369;28;20383;-52
2021/12/09 11:10:35;;;;;;;10.48;6.97;;;8.60;99.90;;;;;;5115261;28;20134;-53
2021/12/09 11:13:02;;;;;;;18.00;8.98;;;8.70;99.90;;;;;;5035433;28;20048;-51
2021/12/09 11:15:49;;;;;;;11.25;7.07;;;8.60;99.90;;;;;;5052091;28;20036;-53
2021/12/09 11:18:34;;;;;;;17.83;9.80;;;8.60;99.90;;;;;;5051823;28;20053;-50
2021/12/09 11:21:03;;;;;;;21.65;13.57;;;8.80;99.90;;;;;;5045737;28;20032;-51
2021/12/09 11:23:44;;;;;;;15.48;10.70;;;8.80;99.90;;;;;;5050329;28;20032;-52
2021/12/09 11:29:45;;;;;;;33.78;18.80;;;9.00;99.90;;;;;;5018186;28;20146;-53
2021/12/09 11:32:31;;;;;;;23.77;17.55;;;8.90;99.90;;;;;;4995704;28;20080;-53
2021/12/09 11:35:05;;;;;;;20.95;14.48;;;9.10;99.90;;;;;;5006375;28;20038;-55
2021/12/09 11:37:39;;;;;;;23.80;16.42;;;9.10;99.90;;;;;;4996846;28;20186;-54
2021/12/09 11:40:10;;;;;;;44.13;25.60;;;9.40;99.90;;;;;;4992248;28;20038;-54
2021/12/09 11:42:53;;;;;;;24.50;14.30;;;9.60;99.90;;;;;;4992800;28;20478;-54
2021/12/09 11:45:23;;;;;;;50.22;28.10;;;9.40;99.90;;;;;;5031251;28;20026;-55
2021/12/09 11:47:51;;;;;;;28.55;20.88;;;9.40;99.90;;;;;;5031311;28;20374;-54
2021/12/09 11:50:21;;;;;;;33.05;20.73;;;9.40;99.90;;;;;;5031223;28;20037;-54
2021/12/09 11:52:48;;;;;;;29.77;20.05;;;9.40;99.90;;;;;;5014487;28;20048;-54
2021/12/09 11:55:18;;;;;;;28.20;20.95;;;9.50;99.90;;;;;;5014607;28;20037;-53
2021/12/09 11:57:51;;;;;;;27.95;20.02;;;;;;;;;;5031099;28;20087;-53
2021/12/09 12:15:48;;;;;;;22.70;14.60;;;9.70;99.90;;;;;;5050791;28;20106;-54
2021/12/09 12:24:05;;;;;;;17.48;12.63;;;9.40;99.90;;;;;;5050695;28;20029;-55
2021/12/09 12:27:02;;;;;;;16.33;10.35;;;9.20;99.90;;;;;;5050056;28;20041;-53
2021/12/09 12:38:13;;;;;;;15.50;11.02;;;8.90;99.90;;;;;;5030668;28;20037;-53
2021/12/09 12:40:43;;;;;;;18.60;11.38;;;8.90;99.90;;;;;;5030460;28;20154;-52
2021/12/09 12:43:23;;;;;;;13.80;8.32;;;9.00;99.90;;;;;;5030619;28;20029;-53
2021/12/09 12:51:23;;;;;;;11.00;8.30;;;9.20;99.90;;;;;;5051544;28;20040;-55
2021/12/09 12:54:08;;;;;;;13.93;9.63;;;9.10;99.90;;;;;;5050845;28;20056;-53
2021/12/09 12:56:43;;;;;;;16.58;10.68;;;9.10;99.90;;;;;;5050549;28;20029;-54
2021/12/09 12:59:14;;;;;;;17.13;12.13;;;9.10;99.90;;;;;;5050366;28;20029;-54
2021/12/09 13:01:45;;;;;;;14.15;10.30;;;9.00;99.90;;;;;;5050025;28;20543;-53
2021/12/09 13:04:29;;;;;;;21.25;12.13;;;9.00;99.90;;;;;;5050382;28;20381;-54
2021/12/09 13:07:01;;;;;;;22.13;12.50;;;8.70;99.90;;;;;;5049827;28;20044;-55
2021/12/09 13:12:06;;;;;;;14.00;8.23;;;8.60;99.90;;;;;;5050264;28;20120;-54
2021/12/09 13:14:36;;;;;;;14.60;9.13;;;8.60;99.90;;;;;;5089126;28;20047;-56
2021/12/09 13:17:11;;;;;;;8.43;5.85;;;8.70;99.90;;;;;;5093229;28;20136;-55
2021/12/09 13:22:11;;;;;;;16.80;10.20;;;8.60;99.90;;;;;;5094114;28;20059;-52
2021/12/09 13:46:43;;;;;;;17.58;10.48;;;8.60;99.90;;;;;;5097968;28;20498;-56
2021/12/09 13:49:49;;;;;;;22.65;15.50;;;8.50;99.90;;;;;;5096492;28;20094;-57
2021/12/09 13:55:30;;;;;;;17.60;11.95;;;8.50;99.90;;;;;;5075874;28;20039;-54
2021/12/09 13:57:59;;;;;;;14.20;11.32;;;8.50;99.90;;;;;;5075762;28;20506;-54
2021/12/09 14:00:24;;;;;;;18.40;14.35;;;8.60;99.90;;;;;;5075985;28;20499;-53
2021/12/09 14:02:56;;;;;;;17.63;13.02;;;8.70;99.90;;;;;;5075968;28;20025;-54
2021/12/09 14:05:23;;;;;;;48.10;25.88;;;8.80;99.90;;;;;;5075214;28;20052;-54